sensor_id;sensor_type;location;lat;lon;timestamp;temperature;humidity
26103;DHT22;32703;49.182;9.042;2022-07-12T00:00:50;15.70;99.90
26103;DHT22;32703;49.182;9.042;2022-07-12T00:03:16;15.60;99.90
26103;DHT22;32703;49.182;9.042;2022-07-12T00:05:42;15.60;99.90
26103;DHT22;32703;49.182;9.042;2022-07-12T00:08:07;15.60;99.90
26103;DHT22;32703;49.182;9.042;2022-07-12T00:10:33;15.50;99.90
26103;DHT22;32703;49.182;9.042;2022-07-12T00:12:59;15.50;99.90
26103;DHT22;32703;49.182;9.042;2022-07-12T00:15:24;15.40;99.90
26103;DHT22;32703;49.182;9.042;2022-07-12T00:17:50;15.60;99.90
26103;DHT22;32703;49.182;9.042;2022-07-12T00:20:16;15.50;99.90
26103;DHT22;32703;49.182;9.042;2022-07-12T00:22:41;15.70;99.90
26103;DHT22;32703;49.182;9.042;2022-07-12T00:25:07;15.70;99.90
26103;DHT22;32703;49.182;9.042;2022-07-12T00:27:34;15.70;99.90
26103;DHT22;32703;49.182;9.042;2022-07-12T00:29:59;15.70;99.90
26103;DHT22;32703;49.182;9.042;2022-07-12T00:32:25;15.80;99.90
26103;DHT22;32703;49.182;9.042;2022-07-12T00:34:50;15.80;99.90
26103;DHT22;32703;49.182;9.042;2022-07-12T00:37:16;15.80;99.90
26103;DHT22;32703;49.182;9.042;2022-07-12T00:39:42;15.90;99.90
26103;DHT22;32703;49.182;9.042;2022-07-12T00:42:07;15.70;99.90
26103;DHT22;32703;49.182;9.042;2022-07-12T00:44:33;15.80;99.90
26103;DHT22;32703;49.182;9.042;2022-07-12T00:47:00;15.90;99.90
26103;DHT22;32703;49.182;9.042;2022-07-12T00:49:26;15.90;99.90
26103;DHT22;32703;49.182;9.042;2022-07-12T00:51:52;15.90;99.90
26103;DHT22;32703;49.182;9.042;2022-07-12T00:54:19;15.80;99.90
26103;DHT22;32703;49.182;9.042;2022-07-12T00:56:45;15.80;99.90
26103;DHT22;32703;49.182;9.042;2022-07-12T00:59:11;15.70;99.90
26103;DHT22;32703;49.182;9.042;2022-07-12T01:01:38;15.70;99.90
26103;DHT22;32703;49.182;9.042;2022-07-12T01:04:04;15.70;99.90
26103;DHT22;32703;49.182;9.042;2022-07-12T01:06:30;15.60;99.90
26103;DHT22;32703;49.182;9.042;2022-07-12T01:08:57;15.60;99.90
26103;DHT22;32703;49.182;9.042;2022-07-12T01:11:24;15.60;99.90
26103;DHT22;32703;49.182;9.042;2022-07-12T01:13:52;15.40;99.90
26103;DHT22;32703;49.182;9.042;2022-07-12T01:16:19;15.50;99.90
26103;DHT22;32703;49.182;9.042;2022-07-12T01:18:45;15.50;99.90
26103;DHT22;32703;49.182;9.042;2022-07-12T01:21:18;15.40;99.90
26103;DHT22;32703;49.182;9.042;2022-07-12T01:23:49;15.40;99.90
26103;DHT22;32703;49.182;9.042;2022-07-12T01:26:15;15.30;99.90
26103;DHT22;32703;49.182;9.042;2022-07-12T01:28:41;15.40;99.90
26103;DHT22;32703;49.182;9.042;2022-07-12T01:31:06;15.10;99.90
26103;DHT22;32703;49.182;9.042;2022-07-12T01:33:33;15.20;99.90
26103;DHT22;32703;49.182;9.042;2022-07-12T01:35:59;15.20;99.90
26103;DHT22;32703;49.182;9.042;2022-07-12T01:38:25;15.10;99.90
26103;DHT22;32703;49.182;9.042;2022-07-12T01:40:50;14.90;99.90
26103;DHT22;32703;49.182;9.042;2022-07-12T01:43:16;15.00;99.90
26103;DHT22;32703;49.182;9.042;2022-07-12T01:45:42;14.90;99.90
26103;DHT22;32703;49.182;9.042;2022-07-12T01:48:08;14.90;99.90
26103;DHT22;32703;49.182;9.042;2022-07-12T01:50:34;15.00;99.90
26103;DHT22;32703;49.182;9.042;2022-07-12T01:53:00;14.90;99.90
26103;DHT22;32703;49.182;9.042;2022-07-12T01:55:26;14.90;99.90
26103;DHT22;32703;49.182;9.042;2022-07-12T01:57:52;14.90;99.90
26103;DHT22;32703;49.182;9.042;2022-07-12T02:00:18;14.80;99.90
26103;DHT22;32703;49.182;9.042;2022-07-12T02:02:48;14.80;99.90
26103;DHT22;32703;49.182;9.042;2022-07-12T02:05:13;14.80;99.90
26103;DHT22;32703;49.182;9.042;2022-07-12T02:07:40;14.70;99.90
26103;DHT22;32703;49.182;9.042;2022-07-12T02:10:06;14.70;99.90
26103;DHT22;32703;49.182;9.042;2022-07-12T02:12:33;14.60;99.90
26103;DHT22;32703;49.182;9.042;2022-07-12T02:14:59;14.70;99.90
26103;DHT22;32703;49.182;9.042;2022-07-12T02:17:25;14.70;99.90
26103;DHT22;32703;49.182;9.042;2022-07-12T02:19:51;14.60;99.90
26103;DHT22;32703;49.182;9.042;2022-07-12T02:22:17;14.60;99.90
26103;DHT22;32703;49.182;9.042;2022-07-12T02:24:43;14.50;99.90
26103;DHT22;32703;49.182;9.042;2022-07-12T02:27:08;14.50;99.90
26103;DHT22;32703;49.182;9.042;2022-07-12T02:29:34;14.50;99.90
26103;DHT22;32703;49.182;9.042;2022-07-12T02:32:01;14.50;99.90
26103;DHT22;32703;49.182;9.042;2022-07-12T02:34:27;14.50;99.90
26103;DHT22;32703;49.182;9.042;2022-07-12T02:36:53;14.60;99.90
26103;DHT22;32703;49.182;9.042;2022-07-12T02:39:18;14.60;99.90
26103;DHT22;32703;49.182;9.042;2022-07-12T02:41:44;14.60;99.90
26103;DHT22;32703;49.182;9.042;2022-07-12T02:44:09;14.60;99.90
26103;DHT22;32703;49.182;9.042;2022-07-12T02:46:35;14.60;99.90
26103;DHT22;32703;49.182;9.042;2022-07-12T02:49:01;14.60;99.90
26103;DHT22;32703;49.182;9.042;2022-07-12T02:51:26;14.60;99.90
26103;DHT22;32703;49.182;9.042;2022-07-12T02:53:52;14.50;99.90
26103;DHT22;32703;49.182;9.042;2022-07-12T02:56:17;14.40;99.90
26103;DHT22;32703;49.182;9.042;2022-07-12T02:58:43;14.40;99.90
26103;DHT22;32703;49.182;9.042;2022-07-12T03:01:08;14.40;99.90
26103;DHT22;32703;49.182;9.042;2022-07-12T03:03:34;14.30;99.90
26103;DHT22;32703;49.182;9.042;2022-07-12T03:05:59;14.40;99.90
26103;DHT22;32703;49.182;9.042;2022-07-12T03:08:25;14.20;99.90
26103;DHT22;32703;49.182;9.042;2022-07-12T03:10:51;14.20;99.90
26103;DHT22;32703;49.182;9.042;2022-07-12T03:13:16;14.10;99.90
26103;DHT22;32703;49.182;9.042;2022-07-12T03:15:42;13.90;99.90
26103;DHT22;32703;49.182;9.042;2022-07-12T03:18:07;14.00;99.90
26103;DHT22;32703;49.182;9.042;2022-07-12T03:20:33;13.90;99.90
26103;DHT22;32703;49.182;9.042;2022-07-12T03:22:58;13.90;99.90
26103;DHT22;32703;49.182;9.042;2022-07-12T03:25:24;13.90;99.90
26103;DHT22;32703;49.182;9.042;2022-07-12T03:27:50;13.80;99.90
26103;DHT22;32703;49.182;9.042;2022-07-12T03:30:16;13.80;99.90
26103;DHT22;32703;49.182;9.042;2022-07-12T03:32:42;13.80;99.90
26103;DHT22;32703;49.182;9.042;2022-07-12T03:35:08;13.70;99.90
26103;DHT22;32703;49.182;9.042;2022-07-12T03:37:46;13.70;99.90
26103;DHT22;32703;49.182;9.042;2022-07-12T03:40:14;13.70;99.90
26103;DHT22;32703;49.182;9.042;2022-07-12T03:42:40;13.60;99.90
26103;DHT22;32703;49.182;9.042;2022-07-12T03:45:06;13.60;99.90
26103;DHT22;32703;49.182;9.042;2022-07-12T03:47:32;13.60;99.90
26103;DHT22;32703;49.182;9.042;2022-07-12T03:50:04;13.60;99.90
26103;DHT22;32703;49.182;9.042;2022-07-12T03:52:31;13.60;99.90
26103;DHT22;32703;49.182;9.042;2022-07-12T03:55:00;13.70;99.90
26103;DHT22;32703;49.182;9.042;2022-07-12T03:57:28;13.70;99.90
26103;DHT22;32703;49.182;9.042;2022-07-12T03:59:54;13.70;99.90
26103;DHT22;32703;49.182;9.042;2022-07-12T04:02:20;13.60;99.90
26103;DHT22;32703;49.182;9.042;2022-07-12T04:04:45;13.60;99.90
26103;DHT22;32703;49.182;9.042;2022-07-12T04:07:11;13.60;99.90
26103;DHT22;32703;49.182;9.042;2022-07-12T04:09:37;13.60;99.90
26103;DHT22;32703;49.182;9.042;2022-07-12T04:12:02;13.70;99.90
26103;DHT22;32703;49.182;9.042;2022-07-12T04:14:28;13.80;99.90
26103;DHT22;32703;49.182;9.042;2022-07-12T04:16:55;13.90;99.90
26103;DHT22;32703;49.182;9.042;2022-07-12T04:19:20;13.90;99.90
26103;DHT22;32703;49.182;9.042;2022-07-12T04:21:49;13.90;99.90
26103;DHT22;32703;49.182;9.042;2022-07-12T04:24:15;13.90;99.90
26103;DHT22;32703;49.182;9.042;2022-07-12T04:26:40;13.90;99.90
26103;DHT22;32703;49.182;9.042;2022-07-12T04:29:06;14.00;99.90
26103;DHT22;32703;49.182;9.042;2022-07-12T04:31:31;14.10;99.90
26103;DHT22;32703;49.182;9.042;2022-07-12T04:33:57;14.10;99.90
26103;DHT22;32703;49.182;9.042;2022-07-12T04:36:22;14.30;99.90
26103;DHT22;32703;49.182;9.042;2022-07-12T04:38:48;14.40;99.90
26103;DHT22;32703;49.182;9.042;2022-07-12T04:41:13;14.50;99.90
26103;DHT22;32703;49.182;9.042;2022-07-12T04:43:39;14.50;99.90
26103;DHT22;32703;49.182;9.042;2022-07-12T04:46:11;14.50;99.90
26103;DHT22;32703;49.182;9.042;2022-07-12T04:48:37;14.70;99.90
26103;DHT22;32703;49.182;9.042;2022-07-12T04:51:02;14.80;99.90
26103;DHT22;32703;49.182;9.042;2022-07-12T04:53:28;14.90;99.90
26103;DHT22;32703;49.182;9.042;2022-07-12T04:55:55;14.90;99.90
26103;DHT22;32703;49.182;9.042;2022-07-12T04:58:21;15.00;99.90
26103;DHT22;32703;49.182;9.042;2022-07-12T05:00:47;15.00;99.90
26103;DHT22;32703;49.182;9.042;2022-07-12T05:03:12;15.10;99.90
26103;DHT22;32703;49.182;9.042;2022-07-12T05:05:38;15.20;99.90
26103;DHT22;32703;49.182;9.042;2022-07-12T05:08:04;15.30;99.90
26103;DHT22;32703;49.182;9.042;2022-07-12T05:10:29;15.40;99.90
26103;DHT22;32703;49.182;9.042;2022-07-12T05:12:55;15.60;99.90
26103;DHT22;32703;49.182;9.042;2022-07-12T05:15:21;15.70;99.90
26103;DHT22;32703;49.182;9.042;2022-07-12T05:17:47;15.80;99.90
26103;DHT22;32703;49.182;9.042;2022-07-12T05:20:13;15.80;99.90
26103;DHT22;32703;49.182;9.042;2022-07-12T05:22:38;16.10;99.90
26103;DHT22;32703;49.182;9.042;2022-07-12T05:25:06;16.10;99.90
26103;DHT22;32703;49.182;9.042;2022-07-12T05:27:34;16.20;99.90
26103;DHT22;32703;49.182;9.042;2022-07-12T05:29:59;16.10;99.90
26103;DHT22;32703;49.182;9.042;2022-07-12T05:32:25;16.40;99.90
26103;DHT22;32703;49.182;9.042;2022-07-12T05:34:51;16.50;99.90
26103;DHT22;32703;49.182;9.042;2022-07-12T05:37:16;16.60;99.90
26103;DHT22;32703;49.182;9.042;2022-07-12T05:39:42;16.60;99.90
26103;DHT22;32703;49.182;9.042;2022-07-12T05:42:07;16.80;99.90
26103;DHT22;32703;49.182;9.042;2022-07-12T05:44:33;16.90;99.90
26103;DHT22;32703;49.182;9.042;2022-07-12T05:46:58;17.00;99.90
26103;DHT22;32703;49.182;9.042;2022-07-12T05:49:24;17.10;99.90
26103;DHT22;32703;49.182;9.042;2022-07-12T05:51:49;17.20;99.90
26103;DHT22;32703;49.182;9.042;2022-07-12T05:54:34;17.30;99.90
26103;DHT22;32703;49.182;9.042;2022-07-12T05:56:59;17.40;99.90
26103;DHT22;32703;49.182;9.042;2022-07-12T05:59:25;17.50;99.90
26103;DHT22;32703;49.182;9.042;2022-07-12T06:01:50;17.60;99.90
26103;DHT22;32703;49.182;9.042;2022-07-12T06:04:16;17.70;99.90
26103;DHT22;32703;49.182;9.042;2022-07-12T06:06:41;17.80;99.90
26103;DHT22;32703;49.182;9.042;2022-07-12T06:09:07;18.00;99.90
26103;DHT22;32703;49.182;9.042;2022-07-12T06:11:32;18.00;99.90
26103;DHT22;32703;49.182;9.042;2022-07-12T06:13:59;18.20;99.90
26103;DHT22;32703;49.182;9.042;2022-07-12T06:16:25;18.30;99.90
26103;DHT22;32703;49.182;9.042;2022-07-12T06:18:50;18.40;99.90
26103;DHT22;32703;49.182;9.042;2022-07-12T06:21:16;18.60;99.90
26103;DHT22;32703;49.182;9.042;2022-07-12T06:23:41;18.70;99.90
26103;DHT22;32703;49.182;9.042;2022-07-12T06:26:07;18.80;99.90
26103;DHT22;32703;49.182;9.042;2022-07-12T06:28:32;19.00;99.90
26103;DHT22;32703;49.182;9.042;2022-07-12T06:30:58;19.10;99.90
26103;DHT22;32703;49.182;9.042;2022-07-12T06:33:23;19.30;99.90
26103;DHT22;32703;49.182;9.042;2022-07-12T06:35:49;19.30;99.90
26103;DHT22;32703;49.182;9.042;2022-07-12T06:38:15;19.50;99.90
26103;DHT22;32703;49.182;9.042;2022-07-12T06:40:41;19.60;99.90
26103;DHT22;32703;49.182;9.042;2022-07-12T06:43:10;19.80;99.80
26103;DHT22;32703;49.182;9.042;2022-07-12T06:45:36;20.00;99.00
26103;DHT22;32703;49.182;9.042;2022-07-12T06:48:02;20.10;98.70
26103;DHT22;32703;49.182;9.042;2022-07-12T06:50:28;20.30;98.20
26103;DHT22;32703;49.182;9.042;2022-07-12T06:52:53;20.50;97.90
26103;DHT22;32703;49.182;9.042;2022-07-12T06:55:19;20.70;97.30
26103;DHT22;32703;49.182;9.042;2022-07-12T06:57:44;20.90;96.90
26103;DHT22;32703;49.182;9.042;2022-07-12T07:00:10;21.00;96.20
26103;DHT22;32703;49.182;9.042;2022-07-12T07:02:38;21.20;95.50
26103;DHT22;32703;49.182;9.042;2022-07-12T07:05:05;21.30;95.10
26103;DHT22;32703;49.182;9.042;2022-07-12T07:07:30;21.50;94.90
26103;DHT22;32703;49.182;9.042;2022-07-12T07:09:56;21.70;94.60
26103;DHT22;32703;49.182;9.042;2022-07-12T07:12:21;22.00;94.10
26103;DHT22;32703;49.182;9.042;2022-07-12T07:14:48;22.30;93.40
26103;DHT22;32703;49.182;9.042;2022-07-12T07:17:15;22.70;92.70
26103;DHT22;32703;49.182;9.042;2022-07-12T07:19:42;23.00;91.70
26103;DHT22;32703;49.182;9.042;2022-07-12T07:22:08;23.10;90.80
26103;DHT22;32703;49.182;9.042;2022-07-12T07:24:35;23.20;89.00
26103;DHT22;32703;49.182;9.042;2022-07-12T07:27:00;23.30;85.90
26103;DHT22;32703;49.182;9.042;2022-07-12T07:29:26;23.30;84.30
26103;DHT22;32703;49.182;9.042;2022-07-12T07:32:10;23.40;84.90
26103;DHT22;32703;49.182;9.042;2022-07-12T07:34:36;23.50;84.50
26103;DHT22;32703;49.182;9.042;2022-07-12T07:37:02;23.70;83.60
26103;DHT22;32703;49.182;9.042;2022-07-12T07:39:28;23.90;82.10
26103;DHT22;32703;49.182;9.042;2022-07-12T07:41:53;24.00;82.10
26103;DHT22;32703;49.182;9.042;2022-07-12T07:44:19;24.20;82.20
26103;DHT22;32703;49.182;9.042;2022-07-12T07:46:45;24.50;81.00
26103;DHT22;32703;49.182;9.042;2022-07-12T07:49:10;24.60;79.60
26103;DHT22;32703;49.182;9.042;2022-07-12T07:51:36;24.70;78.40
26103;DHT22;32703;49.182;9.042;2022-07-12T07:54:01;24.90;76.80
26103;DHT22;32703;49.182;9.042;2022-07-12T07:56:28;25.00;75.50
26103;DHT22;32703;49.182;9.042;2022-07-12T07:58:54;25.20;73.80
26103;DHT22;32703;49.182;9.042;2022-07-12T08:01:19;25.30;71.80
26103;DHT22;32703;49.182;9.042;2022-07-12T08:03:45;25.50;70.50
26103;DHT22;32703;49.182;9.042;2022-07-12T08:06:10;25.60;70.30
26103;DHT22;32703;49.182;9.042;2022-07-12T08:08:36;25.60;68.90
26103;DHT22;32703;49.182;9.042;2022-07-12T08:11:03;25.60;69.10
26103;DHT22;32703;49.182;9.042;2022-07-12T08:13:28;25.70;68.80
26103;DHT22;32703;49.182;9.042;2022-07-12T08:15:54;25.70;67.90
26103;DHT22;32703;49.182;9.042;2022-07-12T08:18:19;25.80;68.20
26103;DHT22;32703;49.182;9.042;2022-07-12T08:20:45;26.10;67.10
26103;DHT22;32703;49.182;9.042;2022-07-12T08:23:11;26.30;65.60
26103;DHT22;32703;49.182;9.042;2022-07-12T08:25:37;26.40;65.10
26103;DHT22;32703;49.182;9.042;2022-07-12T08:28:03;26.60;65.30
26103;DHT22;32703;49.182;9.042;2022-07-12T08:30:28;26.70;63.80
26103;DHT22;32703;49.182;9.042;2022-07-12T08:32:54;26.80;63.90
26103;DHT22;32703;49.182;9.042;2022-07-12T08:35:23;26.90;63.40
26103;DHT22;32703;49.182;9.042;2022-07-12T08:37:48;27.10;63.00
26103;DHT22;32703;49.182;9.042;2022-07-12T08:40:14;27.40;62.10
26103;DHT22;32703;49.182;9.042;2022-07-12T08:42:43;27.70;58.50
26103;DHT22;32703;49.182;9.042;2022-07-12T08:45:09;27.80;59.80
26103;DHT22;32703;49.182;9.042;2022-07-12T08:47:35;28.20;58.30
26103;DHT22;32703;49.182;9.042;2022-07-12T08:52:57;28.40;56.90
26103;DHT22;32703;49.182;9.042;2022-07-12T08:55:33;28.20;57.10
26103;DHT22;32703;49.182;9.042;2022-07-12T08:58:02;27.90;57.40
26103;DHT22;32703;49.182;9.042;2022-07-12T09:00:29;27.40;58.20
26103;DHT22;32703;49.182;9.042;2022-07-12T09:02:56;26.80;59.30
26103;DHT22;32703;49.182;9.042;2022-07-12T09:05:26;26.30;60.80
26103;DHT22;32703;49.182;9.042;2022-07-12T09:08:08;25.90;62.40
26103;DHT22;32703;49.182;9.042;2022-07-12T09:10:35;25.70;63.30
26103;DHT22;32703;49.182;9.042;2022-07-12T09:13:01;25.70;63.50
26103;DHT22;32703;49.182;9.042;2022-07-12T09:15:27;26.10;62.60
26103;DHT22;32703;49.182;9.042;2022-07-12T09:18:01;26.70;60.60
26103;DHT22;32703;49.182;9.042;2022-07-12T09:23:09;28.30;55.90
26103;DHT22;32703;49.182;9.042;2022-07-12T09:25:43;28.60;55.10
26103;DHT22;32703;49.182;9.042;2022-07-12T09:28:09;28.40;55.40
26103;DHT22;32703;49.182;9.042;2022-07-12T09:30:36;28.00;56.40
26103;DHT22;32703;49.182;9.042;2022-07-12T09:33:04;27.50;57.80
26103;DHT22;32703;49.182;9.042;2022-07-12T09:35:59;27.10;58.40
26103;DHT22;32703;49.182;9.042;2022-07-12T09:38:50;26.80;59.30
26103;DHT22;32703;49.182;9.042;2022-07-12T09:41:20;26.70;59.80
26103;DHT22;32703;49.182;9.042;2022-07-12T09:43:47;26.50;59.20
26103;DHT22;32703;49.182;9.042;2022-07-12T09:46:17;26.10;60.80
26103;DHT22;32703;49.182;9.042;2022-07-12T09:48:44;25.80;62.10
26103;DHT22;32703;49.182;9.042;2022-07-12T09:51:13;25.70;60.60
26103;DHT22;32703;49.182;9.042;2022-07-12T09:56:10;25.70;62.30
26103;DHT22;32703;49.182;9.042;2022-07-12T09:58:40;26.20;60.60
26103;DHT22;32703;49.182;9.042;2022-07-12T10:01:09;26.40;59.10
26103;DHT22;32703;49.182;9.042;2022-07-12T10:03:36;26.30;59.00
26103;DHT22;32703;49.182;9.042;2022-07-12T10:06:06;26.30;59.20
26103;DHT22;32703;49.182;9.042;2022-07-12T10:08:32;26.40;59.50
26103;DHT22;32703;49.182;9.042;2022-07-12T10:10:58;26.70;58.80
26103;DHT22;32703;49.182;9.042;2022-07-12T10:13:25;27.10;58.20
26103;DHT22;32703;49.182;9.042;2022-07-12T10:15:51;27.30;57.00
26103;DHT22;32703;49.182;9.042;2022-07-12T10:18:22;27.20;56.50
26103;DHT22;32703;49.182;9.042;2022-07-12T10:20:48;27.00;56.70
26103;DHT22;32703;49.182;9.042;2022-07-12T10:25:49;27.40;57.60
26103;DHT22;32703;49.182;9.042;2022-07-12T10:28:14;28.20;55.50
26103;DHT22;32703;49.182;9.042;2022-07-12T10:30:45;29.00;54.20
26103;DHT22;32703;49.182;9.042;2022-07-12T10:33:18;29.70;52.20
26103;DHT22;32703;49.182;9.042;2022-07-12T10:36:03;30.20;51.10
26103;DHT22;32703;49.182;9.042;2022-07-12T10:38:31;30.90;50.10
26103;DHT22;32703;49.182;9.042;2022-07-12T10:40:57;31.40;49.60
26103;DHT22;32703;49.182;9.042;2022-07-12T10:43:40;31.80;48.50
26103;DHT22;32703;49.182;9.042;2022-07-12T10:46:24;32.20;47.50
26103;DHT22;32703;49.182;9.042;2022-07-12T10:48:51;32.60;45.20
26103;DHT22;32703;49.182;9.042;2022-07-12T10:51:18;32.90;44.10
26103;DHT22;32703;49.182;9.042;2022-07-12T10:53:47;33.00;43.80
26103;DHT22;32703;49.182;9.042;2022-07-12T11:01:26;32.40;44.40
26103;DHT22;32703;49.182;9.042;2022-07-12T11:04:02;32.20;44.80
26103;DHT22;32703;49.182;9.042;2022-07-12T11:06:28;31.70;45.40
26103;DHT22;32703;49.182;9.042;2022-07-12T11:08:59;30.90;46.70
26103;DHT22;32703;49.182;9.042;2022-07-12T11:11:40;30.20;48.00
26103;DHT22;32703;49.182;9.042;2022-07-12T11:14:06;29.90;48.90
26103;DHT22;32703;49.182;9.042;2022-07-12T11:16:31;30.30;49.00
26103;DHT22;32703;49.182;9.042;2022-07-12T11:18:58;31.00;48.00
26103;DHT22;32703;49.182;9.042;2022-07-12T11:21:24;31.70;47.90
26103;DHT22;32703;49.182;9.042;2022-07-12T11:23:50;32.40;46.30
26103;DHT22;32703;49.182;9.042;2022-07-12T11:26:16;33.30;44.10
26103;DHT22;32703;49.182;9.042;2022-07-12T11:28:43;34.00;43.00
26103;DHT22;32703;49.182;9.042;2022-07-12T11:31:11;34.30;42.00
26103;DHT22;32703;49.182;9.042;2022-07-12T11:33:39;34.60;41.90
26103;DHT22;32703;49.182;9.042;2022-07-12T11:36:10;35.00;41.70
26103;DHT22;32703;49.182;9.042;2022-07-12T11:38:37;35.30;40.70
26103;DHT22;32703;49.182;9.042;2022-07-12T11:41:04;35.00;39.00
26103;DHT22;32703;49.182;9.042;2022-07-12T11:43:31;34.70;40.50
26103;DHT22;32703;49.182;9.042;2022-07-12T11:45:57;34.50;41.20
26103;DHT22;32703;49.182;9.042;2022-07-12T11:48:24;34.40;40.90
26103;DHT22;32703;49.182;9.042;2022-07-12T11:50:54;34.30;40.30
26103;DHT22;32703;49.182;9.042;2022-07-12T11:55:47;34.10;40.30
26103;DHT22;32703;49.182;9.042;2022-07-12T11:58:14;34.00;40.70
26103;DHT22;32703;49.182;9.042;2022-07-12T12:00:40;33.90;41.60
26103;DHT22;32703;49.182;9.042;2022-07-12T12:03:06;33.90;40.90
26103;DHT22;32703;49.182;9.042;2022-07-12T12:05:33;33.90;40.60
26103;DHT22;32703;49.182;9.042;2022-07-12T12:07:59;33.90;40.80
26103;DHT22;32703;49.182;9.042;2022-07-12T12:10:24;33.90;41.40
26103;DHT22;32703;49.182;9.042;2022-07-12T12:12:55;34.10;41.20
26103;DHT22;32703;49.182;9.042;2022-07-12T12:15:23;34.10;40.80
26103;DHT22;32703;49.182;9.042;2022-07-12T12:18:04;33.90;41.00
26103;DHT22;32703;49.182;9.042;2022-07-12T12:20:35;33.50;42.10
26103;DHT22;32703;49.182;9.042;2022-07-12T12:23:03;33.30;41.90
26103;DHT22;32703;49.182;9.042;2022-07-12T12:25:29;33.10;42.20
26103;DHT22;32703;49.182;9.042;2022-07-12T12:28:03;33.10;42.20
26103;DHT22;32703;49.182;9.042;2022-07-12T12:30:31;33.20;42.30
26103;DHT22;32703;49.182;9.042;2022-07-12T12:32:59;33.30;41.70
26103;DHT22;32703;49.182;9.042;2022-07-12T12:35:33;33.20;41.00
26103;DHT22;32703;49.182;9.042;2022-07-12T12:38:13;33.20;41.40
26103;DHT22;32703;49.182;9.042;2022-07-12T12:40:39;33.20;42.20
26103;DHT22;32703;49.182;9.042;2022-07-12T12:43:09;33.40;40.90
26103;DHT22;32703;49.182;9.042;2022-07-12T12:45:48;33.40;39.80
26103;DHT22;32703;49.182;9.042;2022-07-12T12:48:18;33.20;40.50
26103;DHT22;32703;49.182;9.042;2022-07-12T12:50:46;33.20;40.20
26103;DHT22;32703;49.182;9.042;2022-07-12T12:53:24;33.30;40.10
26103;DHT22;32703;49.182;9.042;2022-07-12T12:55:54;33.40;40.80
26103;DHT22;32703;49.182;9.042;2022-07-12T12:58:22;33.40;40.80
26103;DHT22;32703;49.182;9.042;2022-07-12T13:00:50;33.40;40.80
26103;DHT22;32703;49.182;9.042;2022-07-12T13:03:18;33.50;41.10
26103;DHT22;32703;49.182;9.042;2022-07-12T13:05:45;33.60;40.80
26103;DHT22;32703;49.182;9.042;2022-07-12T13:08:13;33.70;40.30
26103;DHT22;32703;49.182;9.042;2022-07-12T13:10:40;33.50;39.70
26103;DHT22;32703;49.182;9.042;2022-07-12T13:13:07;33.00;40.50
26103;DHT22;32703;49.182;9.042;2022-07-12T13:15:33;32.60;41.40
26103;DHT22;32703;49.182;9.042;2022-07-12T13:17:59;32.10;42.10
26103;DHT22;32703;49.182;9.042;2022-07-12T13:20:25;31.70;42.70
26103;DHT22;32703;49.182;9.042;2022-07-12T13:22:51;31.20;43.30
26103;DHT22;32703;49.182;9.042;2022-07-12T13:25:20;30.70;44.00
26103;DHT22;32703;49.182;9.042;2022-07-12T13:27:45;30.10;44.80
26103;DHT22;32703;49.182;9.042;2022-07-12T13:30:13;29.70;45.20
26103;DHT22;32703;49.182;9.042;2022-07-12T13:32:40;29.30;47.80
26103;DHT22;32703;49.182;9.042;2022-07-12T13:35:08;29.00;46.70
26103;DHT22;32703;49.182;9.042;2022-07-12T13:37:34;28.80;47.40
26103;DHT22;32703;49.182;9.042;2022-07-12T13:40:00;28.70;48.20
26103;DHT22;32703;49.182;9.042;2022-07-12T13:42:47;28.50;47.50
26103;DHT22;32703;49.182;9.042;2022-07-12T13:45:18;28.40;47.60
26103;DHT22;32703;49.182;9.042;2022-07-12T13:47:45;28.40;47.70
26103;DHT22;32703;49.182;9.042;2022-07-12T13:50:15;28.30;48.00
26103;DHT22;32703;49.182;9.042;2022-07-12T13:52:42;28.20;48.20
26103;DHT22;32703;49.182;9.042;2022-07-12T13:55:09;28.20;48.40
26103;DHT22;32703;49.182;9.042;2022-07-12T13:57:36;28.30;49.00
26103;DHT22;32703;49.182;9.042;2022-07-12T14:00:08;28.20;49.20
26103;DHT22;32703;49.182;9.042;2022-07-12T14:02:35;28.20;49.00
26103;DHT22;32703;49.182;9.042;2022-07-12T14:05:02;28.30;49.40
26103;DHT22;32703;49.182;9.042;2022-07-12T14:07:28;28.20;49.30
26103;DHT22;32703;49.182;9.042;2022-07-12T14:09:54;28.20;49.40
26103;DHT22;32703;49.182;9.042;2022-07-12T14:12:19;28.20;48.80
26103;DHT22;32703;49.182;9.042;2022-07-12T14:14:45;28.20;49.20
26103;DHT22;32703;49.182;9.042;2022-07-12T14:17:50;28.20;50.00
26103;DHT22;32703;49.182;9.042;2022-07-12T14:20:22;28.40;48.70
26103;DHT22;32703;49.182;9.042;2022-07-12T14:22:48;28.30;48.60
26103;DHT22;32703;49.182;9.042;2022-07-12T14:25:15;28.20;48.60
26103;DHT22;32703;49.182;9.042;2022-07-12T14:27:42;28.10;49.10
26103;DHT22;32703;49.182;9.042;2022-07-12T14:30:10;28.10;49.30
26103;DHT22;32703;49.182;9.042;2022-07-12T14:32:36;28.00;48.70
26103;DHT22;32703;49.182;9.042;2022-07-12T14:35:02;28.00;48.20
26103;DHT22;32703;49.182;9.042;2022-07-12T14:37:28;28.00;48.40
26103;DHT22;32703;49.182;9.042;2022-07-12T14:39:54;28.00;48.50
26103;DHT22;32703;49.182;9.042;2022-07-12T14:42:19;28.00;48.50
26103;DHT22;32703;49.182;9.042;2022-07-12T14:44:46;28.00;48.70
26103;DHT22;32703;49.182;9.042;2022-07-12T14:47:11;28.00;49.20
26103;DHT22;32703;49.182;9.042;2022-07-12T14:49:38;28.10;49.30
26103;DHT22;32703;49.182;9.042;2022-07-12T14:52:05;28.10;49.20
26103;DHT22;32703;49.182;9.042;2022-07-12T14:54:33;28.10;48.70
26103;DHT22;32703;49.182;9.042;2022-07-12T14:56:59;28.10;47.80
26103;DHT22;32703;49.182;9.042;2022-07-12T14:59:25;28.10;48.20
26103;DHT22;32703;49.182;9.042;2022-07-12T15:01:51;28.00;48.50
26103;DHT22;32703;49.182;9.042;2022-07-12T15:04:17;28.00;49.20
26103;DHT22;32703;49.182;9.042;2022-07-12T15:06:43;28.00;48.60
26103;DHT22;32703;49.182;9.042;2022-07-12T15:09:09;28.10;48.40
26103;DHT22;32703;49.182;9.042;2022-07-12T15:11:35;28.10;48.60
26103;DHT22;32703;49.182;9.042;2022-07-12T15:14:02;28.20;48.60
26103;DHT22;32703;49.182;9.042;2022-07-12T15:16:28;28.20;48.50
26103;DHT22;32703;49.182;9.042;2022-07-12T15:18:53;28.20;48.60
26103;DHT22;32703;49.182;9.042;2022-07-12T15:21:19;28.30;48.70
26103;DHT22;32703;49.182;9.042;2022-07-12T15:23:45;28.30;48.30
26103;DHT22;32703;49.182;9.042;2022-07-12T15:26:11;28.30;48.30
26103;DHT22;32703;49.182;9.042;2022-07-12T15:28:52;28.30;48.50
26103;DHT22;32703;49.182;9.042;2022-07-12T15:31:19;28.20;48.80
26103;DHT22;32703;49.182;9.042;2022-07-12T15:33:44;28.30;48.20
26103;DHT22;32703;49.182;9.042;2022-07-12T15:36:11;28.30;48.60
26103;DHT22;32703;49.182;9.042;2022-07-12T15:38:36;28.30;48.50
26103;DHT22;32703;49.182;9.042;2022-07-12T15:41:02;28.40;48.70
26103;DHT22;32703;49.182;9.042;2022-07-12T15:43:27;28.40;48.80
26103;DHT22;32703;49.182;9.042;2022-07-12T15:45:53;28.40;48.70
26103;DHT22;32703;49.182;9.042;2022-07-12T15:48:19;28.50;48.60